Aktualne dane pomiarowe

Uwaga, wersja testowa! Automatyczne pobieranie danych za pomocą narzędzi lub skryptów to umożliwiających jest zabronione.

Dane meteo z obszaru Polski uzyskane na podstawie depesz SYNOP pobieranych co godzinę z NWS. Najedź myszką na symbol przedstawiony w tabeli, aby uzyskać informacje co do jego znaczenia. Prosimy pamiętać, że to testowa wersja strony, która jeszcze nie jest ukończona. Stworzono również jest krótki FAQ dotyczący korzystania z tej podstrony Anomalie temperatury w chwili obecnej odniesione są do okresu referencyjnego 1951-2016. Okres ten będzie później zmieniony na 1981-2010. Kliknij ikonę aby pobrać plik CSV. Kliknij ikonę aby wygenerować mapę synoptyczną dla danego terminu.

Wybierz Datę:    

        

Łódź (12465)

Dane terminowe dla wybranej stacji. Kliknij datę, aby otrzymać dane z tego terminu dla wszystkich stacji.

TemperaturaZachmurzenieWiatrCiśnienieOpadyPogoda
 Data t td wb tx tn tg rh  Nt Nl Cl Cm Ch ws wd g1 g2 wx mslp ppp ch 24h 12h t ww ww w1 w2  
2019-07-07 23:00:00 13.5 7.5 9.9--- 6720.0wxwxwx4wx--41010.6 989.0 0.7---------
2019-07-07 22:00:00 14.0 7.3 10.0--- 6420.0wxwxwx4wx--41010.2 988.7 1.1---------
2019-07-07 21:00:00 14.6 6.9 10.1--- 6020.0wxwxwx4wx-1041009.9 988.4 1.1---------
2019-07-07 20:00:00 15.2 6.7 10.3--- 5720.0wxwxwx3wx-1031009.7 988.3 1.8---------
2019-07-07 19:00:00 16.0 6.1 10.5--- 5220.0wxwxwxwx5wx---1009.0 987.6 1.2---------
2019-07-07 18:00:00 16.8 5.7 10.7 20.8 13.4- 4820.0wxwxwxwx6wx-1461008.6 987.3 1.2- 0.112------
2019-07-07 17:00:00 17.4 5.7 11.0--- 4620.0wxwxwx5wx---1007.7 986.5 0.1---------
2019-07-07 16:00:00 18.0 4.5 10.8--- 4120.0wxwxwx8wx---1007.6 986.4 -0.1---------
2019-07-07 15:00:00 19.4 3.9 11.2--- 3620.0wxwxwxwx9wx-1491007.2 986.1 -0.2---------
2019-07-07 14:00:00 19.5 4.0 11.3--- 3620.0wxwxwxwx9wx141491007.5 986.4 0.2---------
2019-07-07 13:00:00 19.3 5.4 11.8--- 4020.0wxwxwxwx7wx---1007.6 986.5 0.4---------
2019-07-07 12:00:00 18.8 5.3 11.5--- 4120.0wxwxwxwx8wx-1581007.4 986.3 0.6- 0.16wx-w1--
2019-07-07 11:00:00 18.8 5.9 11.7--- 4320.0wxwxwx7wx---1007.3 986.2 0.7---------
2019-07-07 10:00:00 16.7 6.5 11.0--- 5120.0wxwxwxwx8wx--81007.4 986.1 0.7---------
2019-07-07 09:00:00 16.1 9.0 11.8--- 6320.0wxwxwxwx7wx--71007.0 985.7 0.4---wx-w1--
2019-07-07 08:00:00 14.4 10.2 11.7--- 7620.0wxwxwxwx6wx--61006.9 985.5 0.7---wx---
2019-07-07 07:00:00 13.8 12.2 12.7--- 9020.0wxwxwx5wx--51006.9 985.4 0.9---wx-w1--
2019-07-07 06:00:00 13.4 11.6 12.1 19.8 13.2 12 8920.0wxwxwx6wx--61006.8 985.3 1.0 2.0 2.012wx-w1- 1.5
2019-07-07 05:00:00 14.2 12.9 13.3--- 9220.0wxwxwx5wx--51006.2 984.8 0.1---wx-w1w2--
2019-07-07 04:00:00 15.3 14.0 14.4--- 9220.0wxwxwx5wx--51005.9 984.5 -0.3---wx---
2019-07-07 03:00:00 15.1 13.6 14.0--- 9120.0wxwxwxwx2wx--21005.7 984.3 -1.1---------
2019-07-07 02:00:00 13.7 13.1 13.2--- 9615.0wxwxwxwx1wx--11006.2 984.7 -0.8---------
2019-07-07 01:00:00 13.7 13.1 13.2--- 9610.0wx-wx0----1006.3 984.8 -0.6---------
2019-07-07 00:00:00 14.5 13.4 13.7--- 9310.0wx-wx1wx--11006.8 985.4 0.3- 0.86wx-w1--
2019-07-06 23:00:00 15.2 14.1 14.4--- 9315.0wxwxwxwx1wx--11006.9 985.5 0.0---wx-w1w2--
2019-07-06 22:00:00 16.4 12.6 13.9--- 7820.0wxwxwxwx1wx--11006.7 985.4 0.5---wx---
2019-07-06 21:00:00 17.8 11.1 13.6--- 6520.0wx-wx2wx--21006.3 985.1 0.2---wx-w1--
2019-07-06 20:00:00 18.3 12.1 14.4--- 6720.0wxwxwxwx4wx--41006.6 985.5 0.3---wx---
2019-07-06 19:00:00 19.1 11.1 14.2--- 6020.0wx-wx3wx--31006.0 984.9 -0.6---------
2019-07-06 18:00:00 19.8 11.6 14.7 23.6 15.7- 5920.0wx-wx3wx--31005.9 984.9 -1.4--12wx-w1--
2019-07-06 17:00:00 20.4 11.4 14.9--- 5620.0wx-wx4wx--41006.2 985.2 -1.6---wx---
2019-07-06 16:00:00 21.7 10.9 15.2--- 5020.0wx-wx4wx--41006.4 985.5 -1.9---------
2019-07-06 15:00:00 22.2 10.8 15.4--- 4820.0wx-wx4wx--41007.2 986.3 -1.2---------
2019-07-06 14:00:00 23.1 10.3 15.5--- 4420.0wxwxwxwxwx3wx--31007.6 986.8 -1.3---------
2019-07-06 13:00:00 22.4 9.6 14.9--- 4420.0wxwxwxwx5wx--51008.3 987.4 -1.1---------
2019-07-06 12:00:00 22.5 10.1 15.2--- 4520.0wxwxwx6wx--61008.4 987.5 -1.6- 0.06------
2019-07-06 11:00:00 21.6 9.9 14.7--- 4720.0wxwxwxwx6wx--61009.1 988.1 -1.3---------
2019-07-06 10:00:00 20.2 9.8 14.0--- 5120.0wxwxwxwx6wx--61009.6 988.5 -1.4---------
2019-07-06 09:00:00 19.7 10.7 14.2--- 5620.0wxwxwxwx5wx--51010.2 989.1 -0.9---------
2019-07-06 08:00:00 18.5 11.1 13.9--- 6220.0wxwxwxwx5wx--51010.6 989.4 -0.8---------
2019-07-06 07:00:00 17.2 10.6 13.1--- 6520.0wxwxwxwx4wx--41011.2 989.9 -0.5---------
2019-07-06 06:00:00 15.7 11.3 12.8 18.0 9.0 7 7520.0wxwxwx2wx--21011.4 990.0 -0.6- 0.012----- 1.4
2019-07-06 05:00:00 14.8 11.6 12.7--- 8120.0wxwxwx2wx--21011.7 990.2 -0.3---------
2019-07-06 04:00:00 13.5 11.0 11.8--- 8520.0wxwxwx1wx--11012.0 990.4 -0.4---------
2019-07-06 03:00:00 11.8 10.0 10.6--- 8920.0wxwxwx1wx--11012.3 990.6 -0.5---------
2019-07-06 02:00:00 11.9 9.8 10.5--- 8720.0wxwxwx1wx--11012.2 990.5 -0.5---------
2019-07-06 01:00:00 11.0 9.7 10.1--- 9220.0wxwxwx1wx--11012.6 990.8 -0.1---------
2019-07-06 00:00:00 10.4 9.2 9.5--- 9220.0wx-wx1wx--11013.0 991.1 -0.1- 0.06------
1.1 ms

 

Print Friendly, PDF & Email